sensor_id;sensor_type;location;lat;lon;timestamp;temperature;humidity
4578;DHT22;2301;47.354;8.528;2023-12-14T00:02:02;13.30;90.00
4578;DHT22;2301;47.354;8.528;2023-12-14T00:04:28;13.40;90.10
4578;DHT22;2301;47.354;8.528;2023-12-14T00:06:55;13.30;90.00
4578;DHT22;2301;47.354;8.528;2023-12-14T00:09:22;13.30;89.90
4578;DHT22;2301;47.354;8.528;2023-12-14T00:11:49;13.10;87.30
4578;DHT22;2301;47.354;8.528;2023-12-14T00:14:15;13.20;89.00
4578;DHT22;2301;47.354;8.528;2023-12-14T00:16:42;13.20;90.30
4578;DHT22;2301;47.354;8.528;2023-12-14T00:19:11;13.20;89.10
4578;DHT22;2301;47.354;8.528;2023-12-14T00:21:36;13.20;90.40
4578;DHT22;2301;47.354;8.528;2023-12-14T00:24:03;13.20;90.20
4578;DHT22;2301;47.354;8.528;2023-12-14T00:26:30;13.30;90.20
4578;DHT22;2301;47.354;8.528;2023-12-14T00:28:57;13.20;88.20
4578;DHT22;2301;47.354;8.528;2023-12-14T00:31:24;13.30;90.30
4578;DHT22;2301;47.354;8.528;2023-12-14T00:33:51;13.30;89.50
4578;DHT22;2301;47.354;8.528;2023-12-14T00:36:19;13.30;87.30
4578;DHT22;2301;47.354;8.528;2023-12-14T00:38:46;13.20;87.20
4578;DHT22;2301;47.354;8.528;2023-12-14T00:41:13;13.10;88.00
4578;DHT22;2301;47.354;8.528;2023-12-14T00:43:40;13.20;88.90
4578;DHT22;2301;47.354;8.528;2023-12-14T00:46:07;13.20;89.30
4578;DHT22;2301;47.354;8.528;2023-12-14T00:48:34;13.30;90.00
4578;DHT22;2301;47.354;8.528;2023-12-14T00:51:01;13.40;90.10
4578;DHT22;2301;47.354;8.528;2023-12-14T00:53:30;13.50;90.40
4578;DHT22;2301;47.354;8.528;2023-12-14T00:55:57;13.50;89.90
4578;DHT22;2301;47.354;8.528;2023-12-14T00:58:23;13.50;89.00
4578;DHT22;2301;47.354;8.528;2023-12-14T01:00:50;13.40;84.70
4578;DHT22;2301;47.354;8.528;2023-12-14T01:03:19;13.40;88.60
4578;DHT22;2301;47.354;8.528;2023-12-14T01:05:46;13.50;90.10
4578;DHT22;2301;47.354;8.528;2023-12-14T01:08:13;13.50;89.80
4578;DHT22;2301;47.354;8.528;2023-12-14T01:10:42;13.60;90.00
4578;DHT22;2301;47.354;8.528;2023-12-14T01:13:09;13.60;88.60
4578;DHT22;2301;47.354;8.528;2023-12-14T01:15:36;13.60;89.30
4578;DHT22;2301;47.354;8.528;2023-12-14T01:18:03;13.60;89.30
4578;DHT22;2301;47.354;8.528;2023-12-14T01:20:30;13.60;88.60
4578;DHT22;2301;47.354;8.528;2023-12-14T01:22:56;13.60;87.80
4578;DHT22;2301;47.354;8.528;2023-12-14T01:25:24;13.60;87.50
4578;DHT22;2301;47.354;8.528;2023-12-14T01:27:52;13.40;84.10
4578;DHT22;2301;47.354;8.528;2023-12-14T01:30:19;13.40;85.80
4578;DHT22;2301;47.354;8.528;2023-12-14T01:32:46;13.40;86.90
4578;DHT22;2301;47.354;8.528;2023-12-14T01:35:13;13.40;87.50
4578;DHT22;2301;47.354;8.528;2023-12-14T01:37:40;13.30;87.10
4578;DHT22;2301;47.354;8.528;2023-12-14T01:40:07;13.30;85.30
4578;DHT22;2301;47.354;8.528;2023-12-14T01:42:34;13.20;84.70
4578;DHT22;2301;47.354;8.528;2023-12-14T01:45:03;13.10;85.20
4578;DHT22;2301;47.354;8.528;2023-12-14T01:47:30;13.10;87.40
4578;DHT22;2301;47.354;8.528;2023-12-14T01:49:57;13.20;88.20
4578;DHT22;2301;47.354;8.528;2023-12-14T01:52:24;13.20;87.70
4578;DHT22;2301;47.354;8.528;2023-12-14T01:54:51;13.10;85.50
4578;DHT22;2301;47.354;8.528;2023-12-14T01:57:17;13.20;87.60
4578;DHT22;2301;47.354;8.528;2023-12-14T01:59:44;13.20;87.30
4578;DHT22;2301;47.354;8.528;2023-12-14T02:02:12;13.20;85.40
4578;DHT22;2301;47.354;8.528;2023-12-14T02:04:39;13.20;86.00
4578;DHT22;2301;47.354;8.528;2023-12-14T02:07:06;12.90;82.20
4578;DHT22;2301;47.354;8.528;2023-12-14T02:09:33;12.80;84.80
4578;DHT22;2301;47.354;8.528;2023-12-14T02:12:00;12.80;87.30
4578;DHT22;2301;47.354;8.528;2023-12-14T02:14:27;12.80;85.90
4578;DHT22;2301;47.354;8.528;2023-12-14T02:16:54;12.80;86.80
4578;DHT22;2301;47.354;8.528;2023-12-14T02:19:22;12.80;87.00
4578;DHT22;2301;47.354;8.528;2023-12-14T02:21:49;12.80;88.30
4578;DHT22;2301;47.354;8.528;2023-12-14T02:24:17;12.90;88.40
4578;DHT22;2301;47.354;8.528;2023-12-14T02:26:44;12.80;85.60
4578;DHT22;2301;47.354;8.528;2023-12-14T02:29:11;12.80;87.00
4578;DHT22;2301;47.354;8.528;2023-12-14T02:31:37;12.80;86.50
4578;DHT22;2301;47.354;8.528;2023-12-14T02:34:04;12.80;86.30
4578;DHT22;2301;47.354;8.528;2023-12-14T02:36:31;12.90;88.00
4578;DHT22;2301;47.354;8.528;2023-12-14T02:38:58;12.80;85.50
4578;DHT22;2301;47.354;8.528;2023-12-14T02:41:26;12.70;85.90
4578;DHT22;2301;47.354;8.528;2023-12-14T02:43:53;12.70;87.00
4578;DHT22;2301;47.354;8.528;2023-12-14T02:46:20;12.80;88.00
4578;DHT22;2301;47.354;8.528;2023-12-14T02:48:47;12.90;87.30
4578;DHT22;2301;47.354;8.528;2023-12-14T02:51:14;12.90;88.10
4578;DHT22;2301;47.354;8.528;2023-12-14T02:53:42;12.90;87.60
4578;DHT22;2301;47.354;8.528;2023-12-14T02:56:09;13.00;87.90
4578;DHT22;2301;47.354;8.528;2023-12-14T02:58:38;13.00;87.30
4578;DHT22;2301;47.354;8.528;2023-12-14T03:01:05;13.00;87.30
4578;DHT22;2301;47.354;8.528;2023-12-14T03:03:32;13.00;87.50
4578;DHT22;2301;47.354;8.528;2023-12-14T03:06:00;13.00;86.80
4578;DHT22;2301;47.354;8.528;2023-12-14T03:08:27;13.00;86.80
4578;DHT22;2301;47.354;8.528;2023-12-14T03:10:53;13.00;86.80
4578;DHT22;2301;47.354;8.528;2023-12-14T03:13:20;13.10;87.40
4578;DHT22;2301;47.354;8.528;2023-12-14T03:15:49;13.10;87.40
4578;DHT22;2301;47.354;8.528;2023-12-14T03:18:15;13.10;87.40
4578;DHT22;2301;47.354;8.528;2023-12-14T03:20:42;13.20;87.40
4578;DHT22;2301;47.354;8.528;2023-12-14T03:23:09;13.10;86.70
4578;DHT22;2301;47.354;8.528;2023-12-14T03:25:36;13.10;87.10
4578;DHT22;2301;47.354;8.528;2023-12-14T03:28:03;13.20;87.60
4578;DHT22;2301;47.354;8.528;2023-12-14T03:30:30;13.20;86.80
4578;DHT22;2301;47.354;8.528;2023-12-14T03:32:58;13.30;86.50
4578;DHT22;2301;47.354;8.528;2023-12-14T03:35:25;13.30;86.60
4578;DHT22;2301;47.354;8.528;2023-12-14T03:37:52;13.20;86.00
4578;DHT22;2301;47.354;8.528;2023-12-14T03:40:19;13.20;86.20
4578;DHT22;2301;47.354;8.528;2023-12-14T03:42:46;13.20;86.70
4578;DHT22;2301;47.354;8.528;2023-12-14T03:45:12;13.20;86.00
4578;DHT22;2301;47.354;8.528;2023-12-14T03:47:39;13.10;85.60
4578;DHT22;2301;47.354;8.528;2023-12-14T03:50:11;13.20;86.80
4578;DHT22;2301;47.354;8.528;2023-12-14T03:52:38;13.20;86.70
4578;DHT22;2301;47.354;8.528;2023-12-14T03:55:06;13.20;86.30
4578;DHT22;2301;47.354;8.528;2023-12-14T03:57:33;13.20;85.90
4578;DHT22;2301;47.354;8.528;2023-12-14T04:00:00;13.20;85.60
4578;DHT22;2301;47.354;8.528;2023-12-14T04:02:27;13.10;85.50
4578;DHT22;2301;47.354;8.528;2023-12-14T04:04:54;13.10;86.30
4578;DHT22;2301;47.354;8.528;2023-12-14T04:07:22;13.10;86.00
4578;DHT22;2301;47.354;8.528;2023-12-14T04:09:49;13.10;86.30
4578;DHT22;2301;47.354;8.528;2023-12-14T04:12:15;13.10;86.40
4578;DHT22;2301;47.354;8.528;2023-12-14T04:14:42;13.20;86.10
4578;DHT22;2301;47.354;8.528;2023-12-14T04:17:10;13.20;86.10
4578;DHT22;2301;47.354;8.528;2023-12-14T04:19:38;13.30;85.70
4578;DHT22;2301;47.354;8.528;2023-12-14T04:22:05;13.30;85.20
4578;DHT22;2301;47.354;8.528;2023-12-14T04:24:34;13.20;83.90
4578;DHT22;2301;47.354;8.528;2023-12-14T04:27:01;13.20;85.10
4578;DHT22;2301;47.354;8.528;2023-12-14T04:29:27;13.20;85.00
4578;DHT22;2301;47.354;8.528;2023-12-14T04:31:54;13.20;84.90
4578;DHT22;2301;47.354;8.528;2023-12-14T04:34:21;13.20;85.00
4578;DHT22;2301;47.354;8.528;2023-12-14T04:36:48;13.20;85.00
4578;DHT22;2301;47.354;8.528;2023-12-14T04:39:15;13.30;85.80
4578;DHT22;2301;47.354;8.528;2023-12-14T04:41:44;13.30;86.00
4578;DHT22;2301;47.354;8.528;2023-12-14T04:44:11;13.40;85.90
4578;DHT22;2301;47.354;8.528;2023-12-14T04:46:38;13.40;84.20
4578;DHT22;2301;47.354;8.528;2023-12-14T04:49:05;13.30;84.30
4578;DHT22;2301;47.354;8.528;2023-12-14T04:51:31;13.40;85.30
4578;DHT22;2301;47.354;8.528;2023-12-14T04:54:01;13.30;82.80
4578;DHT22;2301;47.354;8.528;2023-12-14T04:56:28;13.30;84.50
4578;DHT22;2301;47.354;8.528;2023-12-14T04:58:56;13.20;84.80
4578;DHT22;2301;47.354;8.528;2023-12-14T05:01:24;13.30;85.20
4578;DHT22;2301;47.354;8.528;2023-12-14T05:03:52;13.30;85.60
4578;DHT22;2301;47.354;8.528;2023-12-14T05:06:19;13.40;85.20
4578;DHT22;2301;47.354;8.528;2023-12-14T05:08:45;13.40;85.50
4578;DHT22;2301;47.354;8.528;2023-12-14T05:11:15;13.40;84.70
4578;DHT22;2301;47.354;8.528;2023-12-14T05:13:42;13.40;83.70
4578;DHT22;2301;47.354;8.528;2023-12-14T05:16:14;13.40;84.90
4578;DHT22;2301;47.354;8.528;2023-12-14T05:18:41;13.30;84.40
4578;DHT22;2301;47.354;8.528;2023-12-14T05:21:08;13.30;84.60
4578;DHT22;2301;47.354;8.528;2023-12-14T05:23:35;13.20;83.50
4578;DHT22;2301;47.354;8.528;2023-12-14T05:26:02;13.20;84.50
4578;DHT22;2301;47.354;8.528;2023-12-14T05:28:29;13.30;85.20
4578;DHT22;2301;47.354;8.528;2023-12-14T05:30:56;13.30;84.90
4578;DHT22;2301;47.354;8.528;2023-12-14T05:33:24;13.30;83.50
4578;DHT22;2301;47.354;8.528;2023-12-14T05:35:51;13.30;84.40
4578;DHT22;2301;47.354;8.528;2023-12-14T05:38:18;13.30;85.00
4578;DHT22;2301;47.354;8.528;2023-12-14T05:40:44;13.20;81.50
4578;DHT22;2301;47.354;8.528;2023-12-14T05:43:11;13.00;77.70
4578;DHT22;2301;47.354;8.528;2023-12-14T05:45:38;12.80;76.70
4578;DHT22;2301;47.354;8.528;2023-12-14T05:48:05;12.50;76.90
4578;DHT22;2301;47.354;8.528;2023-12-14T05:50:33;12.20;76.50
4578;DHT22;2301;47.354;8.528;2023-12-14T05:53:00;12.00;76.80
4578;DHT22;2301;47.354;8.528;2023-12-14T05:55:27;11.80;77.20
4578;DHT22;2301;47.354;8.528;2023-12-14T05:57:54;11.70;77.60
4578;DHT22;2301;47.354;8.528;2023-12-14T06:00:24;11.50;78.00
4578;DHT22;2301;47.354;8.528;2023-12-14T06:02:50;11.50;78.40
4578;DHT22;2301;47.354;8.528;2023-12-14T06:05:17;11.40;78.70
4578;DHT22;2301;47.354;8.528;2023-12-14T06:07:45;11.30;79.10
4578;DHT22;2301;47.354;8.528;2023-12-14T06:10:12;11.20;79.50
4578;DHT22;2301;47.354;8.528;2023-12-14T06:12:39;11.10;79.90
4578;DHT22;2301;47.354;8.528;2023-12-14T06:15:07;10.90;80.20
4578;DHT22;2301;47.354;8.528;2023-12-14T06:17:34;10.80;80.30
4578;DHT22;2301;47.354;8.528;2023-12-14T06:20:03;10.80;80.70
4578;DHT22;2301;47.354;8.528;2023-12-14T06:22:30;10.70;81.00
4578;DHT22;2301;47.354;8.528;2023-12-14T06:24:59;10.70;81.10
4578;DHT22;2301;47.354;8.528;2023-12-14T06:27:25;10.60;81.20
4578;DHT22;2301;47.354;8.528;2023-12-14T06:29:52;10.50;82.10
4578;DHT22;2301;47.354;8.528;2023-12-14T06:32:19;10.40;81.00
4578;DHT22;2301;47.354;8.528;2023-12-14T06:34:46;10.40;81.60
4578;DHT22;2301;47.354;8.528;2023-12-14T06:37:13;10.40;81.90
4578;DHT22;2301;47.354;8.528;2023-12-14T06:39:41;10.40;82.00
4578;DHT22;2301;47.354;8.528;2023-12-14T06:42:09;10.60;88.50
4578;DHT22;2301;47.354;8.528;2023-12-14T06:44:37;10.80;88.90
4578;DHT22;2301;47.354;8.528;2023-12-14T06:47:04;10.80;85.50
4578;DHT22;2301;47.354;8.528;2023-12-14T06:49:31;10.80;83.80
4578;DHT22;2301;47.354;8.528;2023-12-14T06:51:58;10.80;83.00
4578;DHT22;2301;47.354;8.528;2023-12-14T06:54:28;10.70;82.60
4578;DHT22;2301;47.354;8.528;2023-12-14T06:56:55;10.60;82.40
4578;DHT22;2301;47.354;8.528;2023-12-14T06:59:24;10.60;82.30
4578;DHT22;2301;47.354;8.528;2023-12-14T07:01:50;10.50;82.10
4578;DHT22;2301;47.354;8.528;2023-12-14T07:04:17;10.50;82.30
4578;DHT22;2301;47.354;8.528;2023-12-14T07:06:50;10.40;82.10
4578;DHT22;2301;47.354;8.528;2023-12-14T07:09:17;10.40;82.20
4578;DHT22;2301;47.354;8.528;2023-12-14T07:11:44;10.30;82.50
4578;DHT22;2301;47.354;8.528;2023-12-14T07:14:11;10.30;82.70
4578;DHT22;2301;47.354;8.528;2023-12-14T07:16:39;11.10;94.10
4578;DHT22;2301;47.354;8.528;2023-12-14T07:19:06;11.20;89.30
4578;DHT22;2301;47.354;8.528;2023-12-14T07:21:33;11.10;85.40
4578;DHT22;2301;47.354;8.528;2023-12-14T07:24:00;11.00;83.70
4578;DHT22;2301;47.354;8.528;2023-12-14T07:26:27;10.90;83.20
4578;DHT22;2301;47.354;8.528;2023-12-14T07:28:54;10.80;82.90
4578;DHT22;2301;47.354;8.528;2023-12-14T07:31:21;10.60;82.70
4578;DHT22;2301;47.354;8.528;2023-12-14T07:33:49;10.60;83.00
4578;DHT22;2301;47.354;8.528;2023-12-14T07:36:16;10.50;83.20
4578;DHT22;2301;47.354;8.528;2023-12-14T07:38:42;10.40;83.40
4578;DHT22;2301;47.354;8.528;2023-12-14T07:41:09;10.40;83.50
4578;DHT22;2301;47.354;8.528;2023-12-14T07:43:36;10.30;83.20
4578;DHT22;2301;47.354;8.528;2023-12-14T07:46:03;10.20;83.30
4578;DHT22;2301;47.354;8.528;2023-12-14T07:48:30;10.20;83.20
4578;DHT22;2301;47.354;8.528;2023-12-14T07:50:58;10.20;83.30
4578;DHT22;2301;47.354;8.528;2023-12-14T07:53:25;10.20;83.30
4578;DHT22;2301;47.354;8.528;2023-12-14T07:55:52;10.10;83.10
4578;DHT22;2301;47.354;8.528;2023-12-14T07:58:19;10.00;82.90
4578;DHT22;2301;47.354;8.528;2023-12-14T08:00:45;10.00;83.10
4578;DHT22;2301;47.354;8.528;2023-12-14T08:03:12;9.90;84.20
4578;DHT22;2301;47.354;8.528;2023-12-14T08:05:39;9.90;84.70
4578;DHT22;2301;47.354;8.528;2023-12-14T08:08:07;9.90;84.70
4578;DHT22;2301;47.354;8.528;2023-12-14T08:10:34;9.90;84.70
4578;DHT22;2301;47.354;8.528;2023-12-14T08:13:01;9.90;84.80
4578;DHT22;2301;47.354;8.528;2023-12-14T08:15:28;10.40;92.80
4578;DHT22;2301;47.354;8.528;2023-12-14T08:17:55;10.60;91.00
4578;DHT22;2301;47.354;8.528;2023-12-14T08:20:22;10.60;88.40
4578;DHT22;2301;47.354;8.528;2023-12-14T08:22:49;10.60;86.00
4578;DHT22;2301;47.354;8.528;2023-12-14T08:25:17;10.40;84.30
4578;DHT22;2301;47.354;8.528;2023-12-14T08:27:44;10.40;83.80
4578;DHT22;2301;47.354;8.528;2023-12-14T08:30:12;10.30;83.60
4578;DHT22;2301;47.354;8.528;2023-12-14T08:32:39;10.30;83.80
4578;DHT22;2301;47.354;8.528;2023-12-14T08:35:06;10.20;83.90
4578;DHT22;2301;47.354;8.528;2023-12-14T08:37:35;10.20;83.90
4578;DHT22;2301;47.354;8.528;2023-12-14T08:40:02;10.20;83.70
4578;DHT22;2301;47.354;8.528;2023-12-14T08:42:31;10.10;83.80
4578;DHT22;2301;47.354;8.528;2023-12-14T08:44:58;10.10;83.60
4578;DHT22;2301;47.354;8.528;2023-12-14T08:47:24;10.10;83.60
4578;DHT22;2301;47.354;8.528;2023-12-14T08:49:51;10.10;83.80
4578;DHT22;2301;47.354;8.528;2023-12-14T08:52:18;10.00;83.70
4578;DHT22;2301;47.354;8.528;2023-12-14T08:54:47;10.00;83.80
4578;DHT22;2301;47.354;8.528;2023-12-14T08:57:18;10.10;84.20
4578;DHT22;2301;47.354;8.528;2023-12-14T08:59:48;10.10;84.20
4578;DHT22;2301;47.354;8.528;2023-12-14T09:02:15;10.10;84.10
4578;DHT22;2301;47.354;8.528;2023-12-14T09:04:42;10.10;83.90
4578;DHT22;2301;47.354;8.528;2023-12-14T09:07:09;10.10;83.90
4578;DHT22;2301;47.354;8.528;2023-12-14T09:09:36;10.10;84.00
4578;DHT22;2301;47.354;8.528;2023-12-14T09:12:06;10.10;84.00
4578;DHT22;2301;47.354;8.528;2023-12-14T09:14:32;10.10;84.10
4578;DHT22;2301;47.354;8.528;2023-12-14T09:17:01;10.10;83.90
4578;DHT22;2301;47.354;8.528;2023-12-14T09:19:29;10.10;83.90
4578;DHT22;2301;47.354;8.528;2023-12-14T09:21:56;10.10;83.80
4578;DHT22;2301;47.354;8.528;2023-12-14T09:24:23;10.10;83.80
4578;DHT22;2301;47.354;8.528;2023-12-14T09:26:50;10.10;83.60
4578;DHT22;2301;47.354;8.528;2023-12-14T09:29:17;10.10;83.70
4578;DHT22;2301;47.354;8.528;2023-12-14T09:31:45;10.10;83.50
4578;DHT22;2301;47.354;8.528;2023-12-14T09:34:14;10.10;83.60
4578;DHT22;2301;47.354;8.528;2023-12-14T09:36:40;10.10;83.60
4578;DHT22;2301;47.354;8.528;2023-12-14T09:39:07;10.10;83.60
4578;DHT22;2301;47.354;8.528;2023-12-14T09:41:36;10.20;83.70
4578;DHT22;2301;47.354;8.528;2023-12-14T09:44:03;10.20;83.80
4578;DHT22;2301;47.354;8.528;2023-12-14T09:46:31;10.20;83.80
4578;DHT22;2301;47.354;8.528;2023-12-14T09:49:00;10.20;83.60
4578;DHT22;2301;47.354;8.528;2023-12-14T09:51:29;10.10;83.30
4578;DHT22;2301;47.354;8.528;2023-12-14T09:53:56;10.10;83.00
4578;DHT22;2301;47.354;8.528;2023-12-14T09:56:24;10.10;82.90
4578;DHT22;2301;47.354;8.528;2023-12-14T09:58:51;10.00;83.00
4578;DHT22;2301;47.354;8.528;2023-12-14T10:01:21;10.00;82.90
4578;DHT22;2301;47.354;8.528;2023-12-14T10:03:49;10.00;83.50
4578;DHT22;2301;47.354;8.528;2023-12-14T10:06:17;10.00;82.80
4578;DHT22;2301;47.354;8.528;2023-12-14T10:08:54;9.90;84.10
4578;DHT22;2301;47.354;8.528;2023-12-14T10:11:22;9.90;84.20
4578;DHT22;2301;47.354;8.528;2023-12-14T10:13:48;9.90;84.40
4578;DHT22;2301;47.354;8.528;2023-12-14T10:16:27;9.90;84.30
4578;DHT22;2301;47.354;8.528;2023-12-14T10:18:56;10.00;82.90
4578;DHT22;2301;47.354;8.528;2023-12-14T10:21:23;10.00;83.20
4578;DHT22;2301;47.354;8.528;2023-12-14T10:23:52;10.00;84.10
4578;DHT22;2301;47.354;8.528;2023-12-14T10:26:22;10.10;83.60
4578;DHT22;2301;47.354;8.528;2023-12-14T10:28:49;10.10;83.90
4578;DHT22;2301;47.354;8.528;2023-12-14T10:31:16;10.10;83.90
4578;DHT22;2301;47.354;8.528;2023-12-14T10:33:44;10.10;84.40
4578;DHT22;2301;47.354;8.528;2023-12-14T10:36:12;10.00;83.90
4578;DHT22;2301;47.354;8.528;2023-12-14T10:38:40;10.10;84.10
4578;DHT22;2301;47.354;8.528;2023-12-14T10:41:12;10.00;83.80
4578;DHT22;2301;47.354;8.528;2023-12-14T10:43:41;10.10;83.90
4578;DHT22;2301;47.354;8.528;2023-12-14T10:46:10;10.10;83.60
4578;DHT22;2301;47.354;8.528;2023-12-14T10:48:36;10.10;83.80
4578;DHT22;2301;47.354;8.528;2023-12-14T10:51:05;10.10;84.60
4578;DHT22;2301;47.354;8.528;2023-12-14T10:53:34;10.10;83.80
4578;DHT22;2301;47.354;8.528;2023-12-14T10:56:04;10.10;84.30
4578;DHT22;2301;47.354;8.528;2023-12-14T10:58:46;10.20;84.60
4578;DHT22;2301;47.354;8.528;2023-12-14T11:01:14;10.20;84.40
4578;DHT22;2301;47.354;8.528;2023-12-14T11:03:41;10.20;85.70
4578;DHT22;2301;47.354;8.528;2023-12-14T11:06:30;10.30;85.00
4578;DHT22;2301;47.354;8.528;2023-12-14T11:08:59;10.30;85.00
4578;DHT22;2301;47.354;8.528;2023-12-14T11:11:29;10.20;83.90
4578;DHT22;2301;47.354;8.528;2023-12-14T11:13:57;10.20;83.60
4578;DHT22;2301;47.354;8.528;2023-12-14T11:16:26;10.20;83.90
4578;DHT22;2301;47.354;8.528;2023-12-14T11:19:29;10.20;84.20
4578;DHT22;2301;47.354;8.528;2023-12-14T11:22:10;10.20;84.10
4578;DHT22;2301;47.354;8.528;2023-12-14T11:24:41;10.20;84.00
4578;DHT22;2301;47.354;8.528;2023-12-14T11:27:09;10.20;84.10
4578;DHT22;2301;47.354;8.528;2023-12-14T11:29:38;10.20;83.90
4578;DHT22;2301;47.354;8.528;2023-12-14T11:32:07;10.20;84.40
4578;DHT22;2301;47.354;8.528;2023-12-14T11:34:34;10.20;84.00
4578;DHT22;2301;47.354;8.528;2023-12-14T11:37:01;10.20;84.20
4578;DHT22;2301;47.354;8.528;2023-12-14T11:39:30;10.20;84.00
4578;DHT22;2301;47.354;8.528;2023-12-14T11:42:01;10.20;83.70
4578;DHT22;2301;47.354;8.528;2023-12-14T11:44:28;10.20;83.90
4578;DHT22;2301;47.354;8.528;2023-12-14T11:46:56;10.20;84.00
4578;DHT22;2301;47.354;8.528;2023-12-14T11:49:24;10.20;84.30
4578;DHT22;2301;47.354;8.528;2023-12-14T11:51:52;10.20;84.30
4578;DHT22;2301;47.354;8.528;2023-12-14T11:54:19;10.20;84.20
4578;DHT22;2301;47.354;8.528;2023-12-14T11:56:47;10.20;84.40
4578;DHT22;2301;47.354;8.528;2023-12-14T11:59:15;10.20;84.40
4578;DHT22;2301;47.354;8.528;2023-12-14T12:01:55;10.20;84.50
4578;DHT22;2301;47.354;8.528;2023-12-14T12:04:23;10.10;84.40
4578;DHT22;2301;47.354;8.528;2023-12-14T12:06:59;10.10;84.70
4578;DHT22;2301;47.354;8.528;2023-12-14T12:09:38;10.20;85.00
4578;DHT22;2301;47.354;8.528;2023-12-14T12:12:09;10.20;85.00
4578;DHT22;2301;47.354;8.528;2023-12-14T12:14:36;10.20;85.20
4578;DHT22;2301;47.354;8.528;2023-12-14T12:17:06;10.20;85.00
4578;DHT22;2301;47.354;8.528;2023-12-14T12:19:33;10.20;85.10
4578;DHT22;2301;47.354;8.528;2023-12-14T12:22:01;10.20;85.30
4578;DHT22;2301;47.354;8.528;2023-12-14T12:24:28;10.20;85.90
4578;DHT22;2301;47.354;8.528;2023-12-14T12:26:55;10.20;85.00
4578;DHT22;2301;47.354;8.528;2023-12-14T12:29:22;10.20;85.00
4578;DHT22;2301;47.354;8.528;2023-12-14T12:31:49;10.20;84.90
4578;DHT22;2301;47.354;8.528;2023-12-14T12:34:18;10.20;85.00
4578;DHT22;2301;47.354;8.528;2023-12-14T12:36:45;10.20;84.90
4578;DHT22;2301;47.354;8.528;2023-12-14T12:39:12;10.10;84.80
4578;DHT22;2301;47.354;8.528;2023-12-14T12:41:39;10.10;84.90
4578;DHT22;2301;47.354;8.528;2023-12-14T12:44:07;10.10;85.00
4578;DHT22;2301;47.354;8.528;2023-12-14T12:46:35;10.10;85.20
4578;DHT22;2301;47.354;8.528;2023-12-14T12:49:03;10.10;85.20
4578;DHT22;2301;47.354;8.528;2023-12-14T12:51:32;10.10;85.00
4578;DHT22;2301;47.354;8.528;2023-12-14T12:53:59;10.10;85.00
4578;DHT22;2301;47.354;8.528;2023-12-14T12:56:26;10.20;85.20
4578;DHT22;2301;47.354;8.528;2023-12-14T12:58:53;10.20;85.20
4578;DHT22;2301;47.354;8.528;2023-12-14T13:01:20;10.20;84.90
4578;DHT22;2301;47.354;8.528;2023-12-14T13:03:54;10.20;85.20
4578;DHT22;2301;47.354;8.528;2023-12-14T13:06:23;10.20;85.10
4578;DHT22;2301;47.354;8.528;2023-12-14T13:08:52;10.20;85.30
4578;DHT22;2301;47.354;8.528;2023-12-14T13:11:19;10.20;85.80
4578;DHT22;2301;47.354;8.528;2023-12-14T13:13:46;10.20;84.90
4578;DHT22;2301;47.354;8.528;2023-12-14T13:16:13;10.20;84.90
4578;DHT22;2301;47.354;8.528;2023-12-14T13:18:42;10.20;84.90
4578;DHT22;2301;47.354;8.528;2023-12-14T13:21:09;10.20;84.90
4578;DHT22;2301;47.354;8.528;2023-12-14T13:23:36;10.20;85.20
4578;DHT22;2301;47.354;8.528;2023-12-14T13:26:06;10.10;85.20
4578;DHT22;2301;47.354;8.528;2023-12-14T13:28:33;10.10;85.50
4578;DHT22;2301;47.354;8.528;2023-12-14T13:31:00;10.10;85.80
4578;DHT22;2301;47.354;8.528;2023-12-14T13:33:26;10.10;86.00
4578;DHT22;2301;47.354;8.528;2023-12-14T13:35:53;10.10;86.00
4578;DHT22;2301;47.354;8.528;2023-12-14T13:38:20;10.10;86.00
4578;DHT22;2301;47.354;8.528;2023-12-14T13:40:47;10.10;86.30
4578;DHT22;2301;47.354;8.528;2023-12-14T13:43:15;10.00;86.10
4578;DHT22;2301;47.354;8.528;2023-12-14T13:45:42;10.00;86.20
4578;DHT22;2301;47.354;8.528;2023-12-14T13:48:09;10.00;86.40
4578;DHT22;2301;47.354;8.528;2023-12-14T13:50:36;10.10;86.50
4578;DHT22;2301;47.354;8.528;2023-12-14T13:53:03;10.10;86.50
4578;DHT22;2301;47.354;8.528;2023-12-14T13:55:31;10.10;86.30
4578;DHT22;2301;47.354;8.528;2023-12-14T13:57:58;10.10;86.20
4578;DHT22;2301;47.354;8.528;2023-12-14T14:00:27;10.10;86.10
4578;DHT22;2301;47.354;8.528;2023-12-14T14:02:54;10.20;86.20
4578;DHT22;2301;47.354;8.528;2023-12-14T14:05:21;10.20;86.30
4578;DHT22;2301;47.354;8.528;2023-12-14T14:07:48;10.20;86.30
4578;DHT22;2301;47.354;8.528;2023-12-14T14:10:15;10.20;86.30
4578;DHT22;2301;47.354;8.528;2023-12-14T14:12:42;10.20;86.50
4578;DHT22;2301;47.354;8.528;2023-12-14T14:15:09;10.20;86.80
4578;DHT22;2301;47.354;8.528;2023-12-14T14:17:38;10.20;86.90
4578;DHT22;2301;47.354;8.528;2023-12-14T14:20:06;10.10;87.20
4578;DHT22;2301;47.354;8.528;2023-12-14T14:22:34;10.10;87.30
4578;DHT22;2301;47.354;8.528;2023-12-14T14:25:01;10.20;87.30
4578;DHT22;2301;47.354;8.528;2023-12-14T14:27:28;10.10;88.10
4578;DHT22;2301;47.354;8.528;2023-12-14T14:29:55;10.10;87.60
4578;DHT22;2301;47.354;8.528;2023-12-14T14:32:22;10.10;87.60
4578;DHT22;2301;47.354;8.528;2023-12-14T14:34:50;10.10;87.40
4578;DHT22;2301;47.354;8.528;2023-12-14T14:37:18;10.10;87.40
4578;DHT22;2301;47.354;8.528;2023-12-14T14:39:45;10.10;87.50
4578;DHT22;2301;47.354;8.528;2023-12-14T14:42:13;10.10;87.80
4578;DHT22;2301;47.354;8.528;2023-12-14T14:44:40;10.10;87.90
4578;DHT22;2301;47.354;8.528;2023-12-14T14:47:07;10.10;87.80
4578;DHT22;2301;47.354;8.528;2023-12-14T14:49:34;10.00;87.60
4578;DHT22;2301;47.354;8.528;2023-12-14T14:52:06;10.10;87.70
4578;DHT22;2301;47.354;8.528;2023-12-14T14:54:32;10.10;87.90
4578;DHT22;2301;47.354;8.528;2023-12-14T14:56:59;10.00;87.80
4578;DHT22;2301;47.354;8.528;2023-12-14T14:59:26;10.00;87.90
4578;DHT22;2301;47.354;8.528;2023-12-14T15:01:56;10.00;87.80
4578;DHT22;2301;47.354;8.528;2023-12-14T15:04:25;10.00;88.00
4578;DHT22;2301;47.354;8.528;2023-12-14T15:06:51;10.00;88.00
4578;DHT22;2301;47.354;8.528;2023-12-14T15:09:20;10.00;88.10
4578;DHT22;2301;47.354;8.528;2023-12-14T15:11:47;10.00;88.10
4578;DHT22;2301;47.354;8.528;2023-12-14T15:14:13;10.00;88.10
4578;DHT22;2301;47.354;8.528;2023-12-14T15:16:40;10.00;88.30
4578;DHT22;2301;47.354;8.528;2023-12-14T15:19:07;10.00;88.40
4578;DHT22;2301;47.354;8.528;2023-12-14T15:21:35;9.90;89.30
4578;DHT22;2301;47.354;8.528;2023-12-14T15:24:02;10.00;88.30
4578;DHT22;2301;47.354;8.528;2023-12-14T15:26:30;9.90;89.30
4578;DHT22;2301;47.354;8.528;2023-12-14T15:28:58;10.00;88.10
4578;DHT22;2301;47.354;8.528;2023-12-14T15:31:25;9.90;89.20
4578;DHT22;2301;47.354;8.528;2023-12-14T15:33:52;9.90;89.10
4578;DHT22;2301;47.354;8.528;2023-12-14T15:36:19;9.90;89.20
4578;DHT22;2301;47.354;8.528;2023-12-14T15:38:46;9.90;89.30
4578;DHT22;2301;47.354;8.528;2023-12-14T15:41:13;9.90;89.40
4578;DHT22;2301;47.354;8.528;2023-12-14T15:43:42;9.90;90.00
4578;DHT22;2301;47.354;8.528;2023-12-14T15:46:09;9.90;89.60
4578;DHT22;2301;47.354;8.528;2023-12-14T15:48:36;9.80;89.60
4578;DHT22;2301;47.354;8.528;2023-12-14T15:51:04;9.90;89.90
4578;DHT22;2301;47.354;8.528;2023-12-14T15:53:31;9.90;90.00
4578;DHT22;2301;47.354;8.528;2023-12-14T15:55:58;9.90;90.10
4578;DHT22;2301;47.354;8.528;2023-12-14T15:58:25;9.90;90.20
4578;DHT22;2301;47.354;8.528;2023-12-14T16:00:54;9.90;90.20
4578;DHT22;2301;47.354;8.528;2023-12-14T16:03:21;9.90;90.10
4578;DHT22;2301;47.354;8.528;2023-12-14T16:05:48;9.90;90.10